Terminal Aerodrome Forecast
Issued by NWS

Current Version | Previous Version | Text Only | Print | Product List | Glossary On
Versions: 1 2 3 4 5 6 7 8 9 10 11 12 13 14 15 16 17 18 19 20 21 22 23
689
FTAK31 PAJN 300022 AAA
TAFASI
TAF AMD
PASI 300022Z 3000/3024 25006KT P6SM VCTS BKN020 BKN040CB
      TEMPO 3000/3004 6SM -SHRA BR BKN020 OVC030
     FM300500 VRB04KT P6SM VCSH BKN015 OVC050
     FM301400 VRB04KT P6SM BKN015 OVC050=

USA.gov is the U.S. government's official web portal to all federal, state and local government web resources and services.